Terminal Aerodrome Forecast
Issued by NWS

Home | Current Version | Previous Version | Text Only | Print | Product List | Glossary Off
Versions: 1 2 3 4 5 6 7 8 9 10 11 12 13 14 15 16 17 18 19 20 21

449
FTUS43 KDVN 280520
TAFBRL
TAF
KBRL 280520Z 2806/2906 04005KT P6SM SKC
     FM281700 03010KT P6SM SCT050
     FM290100 03004KT P6SM SKC=

USA.gov is the U.S. government's official web portal to all federal, state and local government web resources and services.